Kansai, Japan

12:48 PM JST on January 26, 2015 (GMT +0900)
Kansai International | Change Station
CLOSE
Current Station
Airport
Location: Kansai,
Elevation: 26 ft
Nearby Weather Stations

Elev 26 ft 34.43 °N, 135.23 °E | Updated 18 minutes ago

Light Rain
Light Rain
50 °F
Feels Like 50 °F
N
12
Wind Variable Wind from NE

Today
High -- | Low -- °F
--% Chance of Precip.
Yesterday
High -- | Low -- °F
Precip. -- in
7:01 AM 5:22 PM
Waxing Crescent, 38% visible
Pressure 30.06 in
Visibility 6.2 miles
Clouds Few 3000 ft
Scattered Clouds 5000 ft
Mostly Cloudy 7000 ft
Dew Point 39 °F
Humidity 66%
Rainfall 0.00 in
Snow Depth Not available.
UV 3 out of 12
Pollen Not available.
Air Quality Not available.
Flu Activity Not available.
METAR RJBB 260330Z 04010KT 9999 -RA FEW030 SCT050 BKN070 10/04 Q1018 NOSIG

More Conditions Fewer Conditions

Pressure 30.06 in
Visibility 6.2 miles
Clouds Few 3000 ft
Scattered Clouds 5000 ft
Mostly Cloudy 7000 ft
Dew Point 39 °F
Humidity 66%
Rainfall 0.00 in
Snow Depth Not available.
UV 3 out of 12
Pollen Not available.
Air Quality Not available.
Flu Activity Not available.
METAR RJBB 260330Z 04010KT 9999 -RA FEW030 SCT050 BKN070 10/04 Q1018 NOSIG

More Conditions Fewer Conditions

10-Day Weather Forecast

Almanac

Astronomy

Jan. 26, 2015 Rise Set
Actual Time
Civil Twilight
Nautical Twilight
Astronomical Twilight
Moon
Length of Visible Light
Length of Day
Tomorrow will be .
, % of the Moon is Illuminated

Today's Extremes

Country Highs Country Lows

Community

WunderPhotos

Upload Photos

1,790,106 photos uploaded!

WunderBlogs® & News

Nearby

Air Quality

  Air Quality AQ Index Pollutant
Not available.

Snow Depth

Station Depth Elevation

Earthquake Activity

City Distance Mag. Time & Date
Minimum magnitude displayed is 2.5.

Coastal Water Temperatures

Place Temperature

Nearby Weather Stations